createdAt,value
2022-12-11T00:01:26.264Z,65.81
2022-12-11T00:04:12.403Z,65.73
2022-12-11T00:06:58.744Z,65.31
2022-12-11T00:09:44.607Z,65.29
2022-12-11T00:12:31.499Z,65.20
2022-12-11T00:15:17.544Z,65.05
2022-12-11T00:18:03.552Z,64.66
2022-12-11T00:20:49.574Z,64.83
2022-12-11T00:23:36.176Z,64.90
2022-12-11T00:26:22.537Z,64.67
2022-12-11T00:29:11.169Z,64.81
2022-12-11T00:31:57.691Z,64.75
2022-12-11T00:34:43.664Z,64.81
2022-12-11T00:37:29.731Z,64.60
2022-12-11T00:40:15.466Z,64.82
2022-12-11T00:43:01.491Z,64.60
2022-12-11T00:45:48.200Z,64.53
2022-12-11T00:48:34.247Z,64.47
2022-12-11T00:51:20.339Z,64.68
2022-12-11T00:54:06.812Z,64.51
2022-12-11T00:56:52.985Z,64.54
2022-12-11T00:59:39.395Z,64.40
2022-12-11T01:02:25.484Z,64.36
2022-12-11T01:05:11.857Z,64.68
2022-12-11T01:07:58.294Z,64.40
2022-12-11T01:10:44.186Z,64.18
2022-12-11T01:13:30.211Z,64.07
2022-12-11T01:16:16.441Z,63.96
2022-12-11T01:19:03.388Z,63.84
2022-12-11T01:21:49.512Z,63.89
2022-12-11T01:24:35.371Z,64.05
2022-12-11T01:27:21.302Z,63.85
2022-12-11T01:30:08.592Z,63.92
2022-12-11T01:32:54.514Z,63.94
2022-12-11T01:35:40.717Z,63.95
2022-12-11T01:38:26.626Z,64.00
2022-12-11T01:41:12.915Z,63.99
2022-12-11T01:44:06.586Z,63.77
2022-12-11T01:46:53.221Z,63.72
2022-12-11T01:49:40.476Z,63.98
2022-12-11T01:52:26.520Z,63.99
2022-12-11T01:55:12.932Z,64.06
2022-12-11T01:57:58.967Z,64.13
2022-12-11T02:00:44.906Z,63.87
2022-12-11T02:03:30.935Z,63.59
2022-12-11T02:06:37.695Z,63.98
2022-12-11T02:09:28.912Z,63.86
2022-12-11T02:12:39.942Z,63.73
2022-12-11T02:15:56.009Z,63.85
2022-12-11T02:18:53.394Z,63.59
2022-12-11T02:21:44.137Z,63.43
2022-12-11T02:24:54.862Z,63.46
2022-12-11T02:28:13.507Z,63.61
2022-12-11T02:31:05.805Z,63.28
2022-12-11T02:34:10.330Z,63.71
2022-12-11T02:37:00.956Z,63.65
2022-12-11T02:39:48.914Z,63.50
2022-12-11T02:42:36.814Z,62.87
2022-12-11T02:45:22.963Z,63.39
2022-12-11T02:48:11.352Z,63.06
2022-12-11T02:50:58.430Z,63.00
2022-12-11T02:53:45.879Z,62.96
2022-12-11T02:56:42.368Z,62.85
2022-12-11T02:59:36.676Z,62.73
2022-12-11T03:02:22.811Z,63.12
2022-12-11T03:05:10.854Z,62.62
2022-12-11T03:07:56.896Z,63.00
2022-12-11T03:10:43.032Z,63.08
2022-12-11T03:13:29.199Z,63.02
2022-12-11T03:16:55.281Z,63.04
2022-12-11T03:20:14.152Z,62.96
2022-12-11T03:23:13.204Z,62.84
2022-12-11T03:26:09.168Z,62.59
2022-12-11T03:29:01.196Z,62.43
2022-12-11T03:31:59.739Z,62.46
2022-12-11T03:34:58.318Z,62.71
2022-12-11T03:37:45.232Z,62.67
2022-12-11T03:40:33.351Z,62.57
2022-12-11T03:43:21.563Z,62.51
2022-12-11T03:46:09.225Z,62.56
2022-12-11T03:48:57.326Z,62.45
2022-12-11T03:51:45.238Z,62.33
2022-12-11T03:54:31.762Z,62.48
2022-12-11T03:57:20.776Z,62.71
2022-12-11T04:00:13.061Z,62.61
2022-12-11T04:03:14.700Z,62.93
2022-12-11T04:06:00.774Z,62.81
2022-12-11T04:08:46.644Z,62.69
2022-12-11T04:11:35.169Z,62.57
2022-12-11T04:14:39.935Z,62.75
2022-12-11T04:17:44.425Z,63.10
2022-12-11T04:20:48.974Z,62.75
2022-12-11T04:23:53.472Z,62.67
2022-12-11T04:26:39.603Z,62.90
2022-12-11T04:29:25.552Z,62.59
2022-12-11T04:32:11.313Z,62.67
2022-12-11T04:34:57.078Z,62.62
2022-12-11T04:37:43.066Z,62.66
2022-12-11T04:40:29.014Z,62.57
2022-12-11T04:43:15.127Z,62.73
2022-12-11T04:46:15.826Z,62.79
2022-12-11T04:49:01.779Z,63.07
2022-12-11T04:51:47.989Z,63.05
2022-12-11T04:54:34.015Z,62.81
2022-12-11T04:57:21.555Z,62.71
2022-12-11T05:00:10.977Z,62.69
2022-12-11T05:02:57.083Z,62.81
2022-12-11T05:05:51.424Z,62.90
2022-12-11T05:08:38.942Z,62.78
2022-12-11T05:11:25.156Z,62.94
2022-12-11T05:14:11.007Z,62.87
2022-12-11T05:16:56.849Z,62.78
2022-12-11T05:19:42.666Z,62.69
2022-12-11T05:22:30.585Z,62.68
2022-12-11T05:25:16.571Z,62.53
2022-12-11T05:28:02.763Z,62.94
2022-12-11T05:30:48.813Z,62.95
2022-12-11T05:33:35.332Z,62.79
2022-12-11T05:36:39.391Z,63.12
2022-12-11T05:39:25.513Z,62.99
2022-12-11T05:42:11.624Z,62.92
2022-12-11T05:44:57.493Z,62.77
2022-12-11T05:47:43.510Z,63.06
2022-12-11T05:50:29.346Z,62.67
2022-12-11T05:53:15.333Z,62.94
2022-12-11T05:56:06.721Z,62.88
2022-12-11T05:58:53.085Z,63.05
2022-12-11T06:01:41.649Z,63.07
2022-12-11T06:04:27.921Z,63.06
2022-12-11T06:07:14.508Z,63.09
2022-12-11T06:10:00.572Z,63.10
2022-12-11T06:12:46.466Z,63.00
2022-12-11T06:15:32.724Z,63.18
2022-12-11T06:18:19.029Z,62.90
2022-12-11T06:21:19.851Z,63.10
2022-12-11T06:24:06.355Z,63.14
2022-12-11T06:26:52.231Z,62.92
2022-12-11T06:29:38.140Z,62.97
2022-12-11T06:32:23.967Z,63.08
2022-12-11T06:35:10.273Z,63.09
2022-12-11T06:37:56.627Z,63.21
2022-12-11T06:40:42.903Z,63.37
2022-12-11T06:43:28.832Z,63.24
2022-12-11T06:46:19.745Z,63.16
2022-12-11T06:49:05.744Z,63.14
2022-12-11T06:51:51.921Z,63.18
2022-12-11T06:54:37.849Z,63.13
2022-12-11T06:57:23.808Z,63.36
2022-12-11T07:00:10.570Z,63.25
2022-12-11T07:02:56.777Z,63.19
2022-12-11T07:05:42.744Z,63.46
2022-12-11T07:08:29.654Z,63.61
2022-12-11T07:11:17.144Z,63.31
2022-12-11T07:14:03.401Z,63.49
2022-12-11T07:16:49.719Z,63.47
2022-12-11T07:19:35.859Z,63.16
2022-12-11T07:22:22.192Z,63.08
2022-12-11T07:25:09.067Z,63.10
2022-12-11T07:27:55.180Z,63.32
2022-12-11T07:30:41.128Z,63.18
2022-12-11T07:33:27.009Z,63.55
2022-12-11T07:36:14.779Z,63.33
2022-12-11T07:39:01.319Z,63.31
2022-12-11T07:41:47.189Z,63.45
2022-12-11T07:44:34.937Z,63.61
2022-12-11T07:47:20.824Z,63.41
2022-12-11T07:50:06.865Z,63.12
2022-12-11T07:52:53.048Z,63.32
2022-12-11T07:55:39.072Z,63.47
2022-12-11T07:58:24.734Z,63.49
2022-12-11T08:01:18.946Z,63.49
2022-12-11T08:04:07.745Z,63.38
2022-12-11T08:06:53.690Z,64.40
2022-12-11T08:09:39.678Z,63.64
2022-12-11T08:12:26.179Z,63.77
2022-12-11T08:15:12.840Z,65.45
2022-12-11T08:17:59.010Z,63.52
2022-12-11T08:20:44.926Z,63.19
2022-12-11T08:23:31.056Z,62.95
2022-12-11T08:26:23.220Z,62.84
2022-12-11T08:29:10.251Z,62.66
2022-12-11T08:31:56.113Z,62.83
2022-12-11T08:34:42.147Z,63.59
2022-12-11T08:37:28.026Z,63.05
2022-12-11T08:40:14.368Z,62.48
2022-12-11T08:43:00.370Z,62.45
2022-12-11T08:45:47.028Z,62.19
2022-12-11T08:48:34.347Z,62.42
2022-12-11T08:51:22.990Z,62.23
2022-12-11T08:54:09.549Z,61.99
2022-12-11T08:56:58.150Z,61.90
2022-12-11T08:59:44.667Z,61.51
2022-12-11T09:02:30.630Z,61.09
2022-12-11T09:05:17.194Z,61.50
2022-12-11T09:08:03.463Z,61.06
2022-12-11T09:10:49.539Z,60.86
2022-12-11T09:13:36.162Z,61.12
2022-12-11T09:16:24.420Z,61.19
2022-12-11T09:19:16.469Z,60.92
2022-12-11T09:22:02.820Z,61.17
2022-12-11T09:24:48.795Z,61.30
2022-12-11T09:27:34.668Z,60.84
2022-12-11T09:30:20.581Z,61.04
2022-12-11T09:33:06.457Z,61.06
2022-12-11T09:36:02.792Z,61.01
2022-12-11T09:38:49.161Z,60.62
2022-12-11T09:41:38.000Z,60.59
2022-12-11T09:44:27.560Z,60.98
2022-12-11T09:47:34.116Z,60.60
2022-12-11T09:50:23.990Z,60.88
2022-12-11T09:53:17.193Z,60.47
2022-12-11T09:56:09.576Z,60.29
2022-12-11T09:58:58.291Z,60.36
2022-12-11T10:01:58.534Z,59.82
2022-12-11T10:05:26.560Z,60.10
2022-12-11T10:08:31.271Z,60.47
2022-12-11T10:11:40.346Z,59.87
2022-12-11T10:14:47.804Z,59.76
2022-12-11T10:17:35.163Z,59.78
2022-12-11T10:20:40.516Z,60.42
2022-12-11T10:23:35.769Z,59.64
2022-12-11T10:26:23.054Z,59.29
2022-12-11T10:29:14.717Z,59.68
2022-12-11T10:32:00.815Z,59.54
2022-12-11T10:34:49.741Z,59.77
2022-12-11T10:37:35.809Z,59.52
2022-12-11T10:40:22.291Z,60.04
2022-12-11T10:43:08.327Z,59.63
2022-12-11T10:45:54.968Z,58.86
2022-12-11T10:48:49.942Z,59.28
2022-12-11T10:51:37.934Z,59.44
2022-12-11T10:54:33.786Z,59.16
2022-12-11T10:57:28.350Z,59.34
2022-12-11T11:00:39.867Z,59.05
2022-12-11T11:03:28.009Z,59.24
2022-12-11T11:06:20.036Z,58.81
2022-12-11T11:09:35.069Z,59.22
2022-12-11T11:12:27.138Z,59.17
2022-12-11T11:15:16.607Z,59.03
2022-12-11T11:18:23.858Z,59.20
2022-12-11T11:21:17.398Z,58.93
2022-12-11T11:24:03.987Z,58.95
2022-12-11T11:27:12.213Z,58.81
2022-12-11T11:29:59.012Z,59.10
2022-12-11T11:32:44.943Z,59.29
2022-12-11T11:35:32.223Z,58.70
2022-12-11T11:38:25.386Z,59.06
2022-12-11T11:41:24.099Z,58.84
2022-12-11T11:44:12.761Z,58.78
2022-12-11T11:47:19.044Z,58.81
2022-12-11T11:50:27.232Z,58.66
2022-12-11T11:53:24.998Z,58.96
2022-12-11T11:56:31.680Z,58.79
2022-12-11T11:59:23.547Z,58.69
2022-12-11T12:02:19.096Z,58.68
2022-12-11T12:05:05.883Z,58.67
2022-12-11T12:08:01.631Z,58.08
2022-12-11T12:11:03.023Z,58.18
2022-12-11T12:14:51.070Z,58.74
2022-12-11T12:17:38.124Z,58.42
2022-12-11T12:20:39.128Z,58.38
2022-12-11T12:23:37.458Z,58.87
2022-12-11T12:26:29.969Z,58.37
2022-12-11T12:29:21.031Z,58.40
2022-12-11T12:32:20.929Z,58.69
2022-12-11T12:35:28.163Z,58.32
2022-12-11T12:38:24.880Z,58.17
2022-12-11T12:41:29.493Z,58.53
2022-12-11T12:44:18.298Z,58.17
2022-12-11T12:47:14.002Z,58.15
2022-12-11T12:50:01.724Z,58.55
2022-12-11T12:52:48.332Z,58.28
2022-12-11T12:55:35.192Z,58.26
2022-12-11T12:58:28.324Z,58.26
2022-12-11T13:01:21.116Z,58.17
2022-12-11T13:04:20.756Z,58.37
2022-12-11T13:07:18.242Z,58.50
2022-12-11T13:10:23.291Z,58.45
2022-12-11T13:13:38.863Z,58.50
2022-12-11T13:16:26.926Z,58.00
2022-12-11T13:19:28.083Z,58.26
2022-12-11T13:22:17.370Z,57.79
2022-12-11T13:25:27.836Z,58.06
2022-12-11T13:28:51.243Z,58.36
2022-12-11T13:31:40.136Z,58.29
2022-12-11T13:34:28.708Z,57.93
2022-12-11T13:37:24.193Z,58.11
2022-12-11T13:40:21.418Z,58.36
2022-12-11T13:43:19.429Z,58.04
2022-12-11T13:46:09.731Z,57.86
2022-12-11T13:49:01.120Z,57.83
2022-12-11T13:51:57.107Z,57.68
2022-12-11T13:54:48.302Z,57.95
2022-12-11T13:57:34.203Z,57.86
2022-12-11T14:00:23.446Z,57.66
2022-12-11T14:03:10.749Z,57.76
2022-12-11T14:05:59.072Z,57.82
2022-12-11T14:08:48.589Z,57.53
2022-12-11T14:11:39.235Z,57.65
2022-12-11T14:14:43.980Z,57.69
2022-12-11T14:17:32.284Z,57.40
2022-12-11T14:20:27.959Z,57.92
2022-12-11T14:23:18.421Z,57.28
2022-12-11T14:26:16.898Z,57.55
2022-12-11T14:29:03.049Z,57.78
2022-12-11T14:31:49.544Z,57.44
2022-12-11T14:34:41.287Z,57.23
2022-12-11T14:37:28.563Z,57.47
2022-12-11T14:40:19.131Z,57.63
2022-12-11T14:43:12.431Z,57.25
2022-12-11T14:46:02.935Z,57.25
2022-12-11T14:49:00.418Z,56.89
2022-12-11T14:51:47.187Z,56.96
2022-12-11T14:54:39.763Z,57.34
2022-12-11T14:57:27.664Z,57.28
2022-12-11T15:00:22.855Z,56.91
2022-12-11T15:03:12.506Z,57.20
2022-12-11T15:05:59.108Z,57.25
2022-12-11T15:08:45.250Z,57.22
2022-12-11T15:11:32.221Z,57.29
2022-12-11T15:14:20.229Z,57.51
2022-12-11T15:17:12.672Z,57.08
2022-12-11T15:20:11.727Z,57.11
2022-12-11T15:22:59.140Z,56.93
2022-12-11T15:25:51.539Z,56.98
2022-12-11T15:28:38.785Z,57.14
2022-12-11T15:31:30.857Z,56.82
2022-12-11T15:34:23.789Z,56.71
2022-12-11T15:37:20.035Z,56.92
2022-12-11T15:40:06.673Z,56.49
2022-12-11T15:42:52.886Z,56.97
2022-12-11T15:45:38.989Z,56.57
2022-12-11T15:48:24.663Z,56.78
2022-12-11T15:51:11.074Z,56.73
2022-12-11T15:53:57.269Z,56.92
2022-12-11T15:56:43.170Z,57.08
2022-12-11T15:59:29.232Z,56.77
2022-12-11T16:02:15.735Z,56.80
2022-12-11T16:05:01.863Z,56.95
2022-12-11T16:07:48.738Z,56.87
2022-12-11T16:10:34.686Z,56.88
2022-12-11T16:13:20.862Z,57.28
2022-12-11T16:16:07.087Z,56.96
2022-12-11T16:18:53.157Z,57.09
2022-12-11T16:21:39.057Z,57.31
2022-12-11T16:24:25.125Z,57.49
2022-12-11T16:27:11.526Z,56.99
2022-12-11T16:29:57.556Z,57.58
2022-12-11T16:32:43.994Z,57.19
2022-12-11T16:35:30.627Z,57.22
2022-12-11T16:38:16.827Z,56.92
2022-12-11T16:41:02.781Z,57.34
2022-12-11T16:43:48.805Z,57.71
2022-12-11T16:46:35.184Z,57.19
2022-12-11T16:49:21.891Z,57.37
2022-12-11T16:52:07.782Z,57.50
2022-12-11T16:54:53.936Z,57.26
2022-12-11T16:57:40.610Z,57.23
2022-12-11T17:00:26.522Z,57.18
2022-12-11T17:03:13.179Z,57.02
2022-12-11T17:05:59.348Z,57.18
2022-12-11T17:08:45.991Z,56.95
2022-12-11T17:11:32.198Z,57.43
2022-12-11T17:14:18.048Z,57.16
2022-12-11T17:17:04.122Z,57.60
2022-12-11T17:19:49.983Z,57.12
2022-12-11T17:22:36.214Z,57.23
2022-12-11T17:25:22.560Z,57.26
2022-12-11T17:28:08.892Z,57.35
2022-12-11T17:30:55.459Z,57.34
2022-12-11T17:33:41.571Z,57.26
2022-12-11T17:36:27.874Z,57.38
2022-12-11T17:39:14.212Z,56.95
2022-12-11T17:42:00.413Z,56.96
2022-12-11T17:44:46.248Z,57.28
2022-12-11T17:47:32.353Z,57.13
2022-12-11T17:50:18.589Z,57.21
2022-12-11T17:53:04.854Z,57.03
2022-12-11T17:55:52.228Z,57.31
2022-12-11T17:58:38.440Z,56.97
2022-12-11T18:01:24.423Z,57.16
2022-12-11T18:04:10.569Z,56.85
2022-12-11T18:06:56.279Z,57.18
2022-12-11T18:09:42.480Z,57.46
2022-12-11T18:12:30.989Z,57.12
2022-12-11T18:15:19.411Z,57.13
2022-12-11T18:18:06.368Z,57.30
2022-12-11T18:20:52.617Z,57.27
2022-12-11T18:23:38.814Z,57.21
2022-12-11T18:26:25.369Z,57.50
2022-12-11T18:29:11.482Z,56.96
2022-12-11T18:31:57.754Z,57.37
2022-12-11T18:34:43.914Z,57.21
2022-12-11T18:37:30.233Z,57.40
2022-12-11T18:40:16.965Z,57.16
2022-12-11T18:43:03.357Z,57.13
2022-12-11T18:45:49.705Z,57.10
2022-12-11T18:48:36.399Z,57.93
2022-12-11T18:51:24.082Z,57.37
2022-12-11T18:54:10.017Z,57.19
2022-12-11T18:56:56.059Z,57.52
2022-12-11T18:59:42.389Z,57.08
2022-12-11T19:02:28.860Z,57.16
2022-12-11T19:05:15.235Z,57.11
2022-12-11T19:08:02.255Z,57.63
2022-12-11T19:10:48.377Z,57.24
2022-12-11T19:13:35.795Z,57.41
2022-12-11T19:16:25.220Z,57.36
2022-12-11T19:19:17.940Z,57.61
2022-12-11T19:22:04.225Z,57.67
2022-12-11T19:24:50.336Z,57.69
2022-12-11T19:27:36.280Z,57.66
2022-12-11T19:30:22.978Z,57.51
2022-12-11T19:33:09.105Z,57.69
2022-12-11T19:36:07.355Z,57.53
2022-12-11T19:38:59.307Z,57.16
2022-12-11T19:41:47.722Z,57.46
2022-12-11T19:44:33.560Z,57.70
2022-12-11T19:47:19.583Z,57.68
2022-12-11T19:50:05.930Z,57.26
2022-12-11T19:52:51.946Z,57.73
2022-12-11T19:55:38.149Z,57.47
2022-12-11T19:58:24.019Z,57.51
2022-12-11T20:01:11.143Z,57.69
2022-12-11T20:03:59.800Z,57.60
2022-12-11T20:06:46.631Z,57.17
2022-12-11T20:09:33.741Z,57.54
2022-12-11T20:12:19.828Z,57.52
2022-12-11T20:15:06.296Z,57.05
2022-12-11T20:17:59.887Z,57.20
2022-12-11T20:20:47.783Z,57.33
2022-12-11T20:23:35.197Z,56.90
2022-12-11T20:26:23.555Z,57.08
2022-12-11T20:29:09.629Z,57.42
2022-12-11T20:31:55.856Z,56.77
2022-12-11T20:34:41.910Z,57.53
2022-12-11T20:37:29.147Z,56.99
2022-12-11T20:40:15.602Z,57.14
2022-12-11T20:43:02.035Z,57.16
2022-12-11T20:45:49.280Z,57.23
2022-12-11T20:48:36.086Z,56.80
2022-12-11T20:51:26.170Z,56.70
2022-12-11T20:54:12.644Z,57.16
2022-12-11T20:56:58.797Z,57.21
2022-12-11T20:59:45.411Z,56.81
2022-12-11T21:02:31.872Z,57.23
2022-12-11T21:05:18.099Z,57.09
2022-12-11T21:08:04.245Z,57.13
2022-12-11T21:10:50.160Z,57.13
2022-12-11T21:13:37.618Z,56.74
2022-12-11T21:16:24.295Z,56.65
2022-12-11T21:19:17.066Z,57.38
2022-12-11T21:22:04.015Z,57.26
2022-12-11T21:24:49.767Z,57.23
2022-12-11T21:27:36.262Z,57.06
2022-12-11T21:30:22.064Z,56.94
2022-12-11T21:33:08.353Z,56.98
2022-12-11T21:35:58.370Z,56.82
2022-12-11T21:38:45.302Z,57.35
2022-12-11T21:41:31.251Z,57.18
2022-12-11T21:47:24.701Z,57.16
2022-12-11T21:50:10.825Z,56.99
2022-12-11T21:52:56.986Z,57.27
2022-12-11T21:55:42.904Z,57.13
2022-12-11T21:58:28.725Z,56.81
2022-12-11T22:01:18.856Z,56.81
2022-12-11T22:04:05.600Z,57.34
2022-12-11T22:06:52.235Z,57.50
2022-12-11T22:09:38.283Z,57.15
2022-12-11T22:12:27.812Z,57.03
2022-12-11T22:15:13.987Z,57.09
2022-12-11T22:18:00.442Z,56.86
2022-12-11T22:20:46.624Z,57.66
2022-12-11T22:23:32.698Z,57.23
2022-12-11T22:26:23.947Z,57.55
2022-12-11T22:29:09.914Z,57.34
2022-12-11T22:31:56.175Z,57.10
2022-12-11T22:34:42.088Z,57.11
2022-12-11T22:37:29.556Z,57.58
2022-12-11T22:40:15.536Z,57.15
2022-12-11T22:43:01.769Z,57.20
2022-12-11T22:45:47.657Z,57.10
2022-12-11T22:48:33.746Z,57.26
2022-12-11T22:51:20.240Z,57.17
2022-12-11T22:54:06.411Z,57.65
2022-12-11T22:56:52.893Z,57.45
2022-12-11T22:59:38.841Z,57.11
2022-12-11T23:02:24.740Z,57.76
2022-12-11T23:05:11.911Z,57.31
2022-12-11T23:07:58.228Z,57.28
2022-12-11T23:10:44.595Z,57.58
2022-12-11T23:13:30.631Z,57.51
2022-12-11T23:16:17.124Z,57.70
2022-12-11T23:19:04.017Z,57.43
2022-12-11T23:21:50.244Z,57.96
2022-12-11T23:24:36.195Z,57.03
2022-12-11T23:27:22.092Z,57.24
2022-12-11T23:30:09.069Z,57.04
2022-12-11T23:32:55.261Z,57.68
2022-12-11T23:35:41.447Z,57.74
2022-12-11T23:38:27.512Z,57.52
2022-12-11T23:41:14.596Z,57.57
2022-12-11T23:44:00.576Z,57.60
2022-12-11T23:46:46.457Z,57.41
2022-12-11T23:49:32.428Z,57.37
2022-12-11T23:52:18.483Z,57.87
2022-12-11T23:55:04.645Z,57.29
2022-12-11T23:57:50.808Z,57.37
